Terminal Aerodrome Forecast
Issued by NWS

Home | Current Version | Previous Version | Text Only | Print | Product List | Glossary On
Versions: 1 2 3 4 5 6 7 8 9 10 11 12 13 14 15 16 17 18 19 20 21 22 23
000
FTUS44 KMAF 281200 AAB
TAFFST
TAF AMD
KFST 281250Z 2813/2912 15011KT P6SM SCT250
     FM281800 14015G25KT P6SM SCT060 BKN250
      TEMPO 2821/2901 4SM TSRA BKN030CB
     FM290200 16015KT P6SM FEW050 BKN200
     FM290700 16012KT P6SM OVC035=

USA.gov is the U.S. government's official web portal to all federal, state and local government web resources and services.